Historyczne dane pomiarowe

Dodano dane terminowe – wersja testowa.

Dane z okresu 1951-2019

Wersja bazy: 1.34 [2019-03-16, lista zmian], aktualizacja planowana na 2019-04-15

Dane meteo z obszaru Polski uzyskane na podstawie danych udostępnionych przez Instytut Meteorologii i Gospodarki Wodnej – Państwowy Instytut Badawczy.

 

Wybierz Datę:    

       

TemperaturaWilgotnośćWiatrCiśnienieOpadyŚniegCzas trwania zjawisk
 Stacja t tx tn tng RH VA  wxwx mslp ppp RRR   cm mm wxwxwxwxwxwxwx
2019-07-25 19.3 27.1 13.0--- 3.7 0.3---- 0.0------------
2019-07-24 18.4 22.2 15.1--- 7.0 0.3---- 0.0------------
2019-07-23 16.6 20.0 14.1--- 8.0 1.0---- 1.4------------
2019-07-22 17.6 24.2 11.8--- 7.3 0.3---- 0.3------------
2019-07-21 18.1 25.7 14.4--- 7.7 0.7---- 13.1------------
2019-07-20 17.8 24.2 12.7--- 7.7 0.7---- 12.1------------
2019-07-19 15.5 24.3 6.9--- 6.0 1.0---- 0.0------------
2019-07-18 14.8 22.1 7.1--- 2.3 0.3---- 0.0------------
2019-07-17 15.5 21.0 10.0--- 2.7 1.0---- 0.0------------
2019-07-16 14.1 23.1 5.3--- 1.7 1.0---- 0.0------------
2019-07-15 13.9 20.9 7.2--- 3.7 0.7---- 0.0------------
2019-07-14 14.1 17.2 12.3--- 8.0 0.0---- 8.9------------
2019-07-13 14.6 19.7 11.3--- 7.3 0.7---- 13.5------------
2019-07-12 12.7 21.9 4.8--- 7.0 0.7---- 0.2------------
2019-07-11 12.5 16.2 9.1--- 5.7 0.3---- 3.7------------
2019-07-10 13.1 18.4 7.6--- 7.0 2.3---- 1.3------------
2019-07-09 12.1 18.7 4.5--- 3.0 1.3---- 0.0------------
2019-07-08 13.9 18.7 9.0--- 4.3 1.7---- 0.0------------
2019-07-07 18.3 25.9 12.3--- 5.0 1.3---- 0.2------------
2019-07-06 19.7 27.7 12.1--- 2.0 2.0---- 0.0------------
2019-07-05 14.7 23.5 5.6--- 6.3 0.0---- 0.0------------
2019-07-04 14.5 22.8 4.9--- 0.0 0.3---- 0.0------------
2019-07-03 16.5 22.5 9.8--- 0.3 1.3---- 0.0------------
2019-07-02 21.3 27.0 17.2--- 4.3 0.3---- 0.0------------
2019-07-01 23.0 34.0 12.3--- 2.7 2.7---- 0.0------------
2019-06-30 21.2 32.7 9.5--- 0.0 1.0---- 0.0------------
2019-06-29 18.9 25.0 13.3--- 1.3 2.0---- 0.0------------
2019-06-28 16.7 22.1 11.3--- 4.3 1.7---- 0.0------------
2019-06-27 22.9 28.6 16.4--- 0.3 2.0---- 0.0------------
2019-06-26 23.4 32.3 14.3--- 0.0 0.7---- 0.0------------
2019-06-25 21.9 29.3 14.2--- 1.3 1.3---- 0.0------------
2019-06-24 19.1 22.0 16.0--- 7.7 1.0---- 0.0------------
2019-06-23 18.3 21.3 15.1--- 7.7 1.3---- 0.0------------
2019-06-22 17.7 22.8 13.5--- 7.0 1.7---- 0.2------------
2019-06-21 19.1 24.4 15.2--- 7.3 0.3---- 0.6------------
2019-06-20 18.5 23.6 15.1--- 7.3 0.0---- 1.7------------
2019-06-19 17.9 25.6 13.7--- 6.7 1.0---- 4.4------------
2019-06-18 15.5 22.2 8.2--- 5.3 0.7---- 0.0------------
2019-06-17 16.7 19.6 14.8--- 5.3 1.3---- 0.4------------
2019-06-16 20.1 29.4 14.5--- 5.3 0.7---- 21.6------------
2019-06-15 22.5 31.0 16.0--- 4.3 1.3---- 0.0------------
2019-06-14 22.5 29.5 15.0--- 4.7 1.3---- 9.1------------
2019-06-13 22.0 30.1 13.3--- 1.7 2.3---- 0.0------------
2019-06-12 22.6 29.0 14.5--- 0.3 3.3---- 0.0------------
2019-06-11 21.9 28.3 13.3--- 0.0 3.0---- 0.0------------
2019-06-10 20.7 28.2 12.3--- 0.0 2.7---- 0.0------------
2019-06-09 18.9 23.8 14.0--- 2.0 2.0---- 0.0------------
2019-06-08 18.5 27.3 11.5--- 2.7 1.7---- 0.0------------
2019-06-07 18.2 24.5 11.3--- 3.3 1.7---- 0.0------------
2019-06-06 17.9 21.8 12.8--- 2.0 2.7---- 0.0------------
2019-06-05 17.0 23.8 11.4--- 2.3 1.7---- 0.0------------
2019-06-04 17.3 23.8 11.3--- 3.7 0.3---- 2.0------------
2019-06-03 16.8 24.3 8.6--- 4.0 1.3---- 0.0------------
2019-06-02 16.5 23.3 10.8--- 3.3 1.0---- 0.0------------
2019-06-01 13.8 21.4 6.7--- 5.0 1.3---- 0.1------------
2019-05-31 11.9 17.6 6.8--- 4.7 0.3---- 0.0------------
2019-05-30 8.5 10.6 6.9--- 8.0 0.3---- 26.2------------
2019-05-29 11.5 15.3 8.8--- 8.0 0.3---- 7.6------------
2019-05-28 15.7 19.8 11.5--- 6.0 3.7---- 0.4------------
2019-05-27 14.7 22.1 7.4--- 5.3 2.3---- 2.3------------
67.7 ms

 

Źródłem pochodzenia danych jest Instytut Meteorologii i Gospodarki Wodnej – Państwowy Instytut Badawczy. Dane Instytutu Meteorologii i Gospodarki Wodnej – Państwowego Instytutu Badawczego zostały przetworzone.

Dane źródłowe można odnaleźć na stronie https://dane.imgw.pl